map of CKY home
CKY - Airport
Location
City:  Conakry, Guinea
Name:Conakry International Airport
Old (Alt.):G'bessia International Airport
ICAO:GUCY
IATA:CKY

Details
Type:Airport (Aerodrome, Airfield)
Use:Public/Civil, International (customs port of entry)
Latitude:934'37"N (9.576889)
Longitude:1336'43"W (-13.611960)
Elevation:72 ft (22 m)
Variation:7.01W (WMM2015 magnetic declination)
0.11 annual change
Runways:1
Longest:10826 × 148 ft (3300 × 45 m), paved

Time
Time Zone:UTC+0
Local Time:

Weather
METAR:GUCY 241300Z 32006KT 5000 HZ FEW015 SCT110 31/25 Q1011 NOSIG
TAF:GUCY 241100Z 2412/2518 27006KT 5000 HZ FEW015 SCT110
TEMPO 2412/2418 36004KT 3000 BR SCT015 BKN100
BECMG 2500/2504 VRB04KT

Related Locations
Nearby:
Farthest:SCZ: 12345 mi / 19867 km
Santa Cruz/Graciosa Bay/Luova, Santa Cruz Island, SB

Find:

   beyond  
but within

Other Information
Maps:
NOTAMs:
Links:
Sources:

  
flag of Guinea   

Sectional Chart

Flight Planning
at skyvector.com

Satellite Image

Google Maps Satellite view

 

Copyright © 2004-2017 Karl L. Swartz. All rights reserved.
The Great Circle Mapper name and logo are trademarks of the Great Circle Mapper.
All other trademarks mentioned herein belong to their respective owners.
Please see credits for attibutions and further copyright information.

  Follow gcmap on Facebook Follow gcmap on Twitter Follow gcmap on Google+ GCmap on LinkedIn

hCard Microformat

Geo Microformat